Middletown, Iowa
Current Conditions -  °F | °C
As of 3:53 AM on Wednesday 26 Nov 2014 (Local Time) from KBRL Reporting Station
Clear Clear  
Wind Chill: 19°   Ceiling: Unl
Heat Index: 25°   Visibility: 10mi
Dew Point: 22°   Wind: 5mph
Humidity: 88%   Direction: 120°ESE
Pressure: 30.05"   Gusts: NA
Location:  40.83°N, 91.26°W
Report Text: KBRL 260953Z AUTO 12004KT 10SM CLR M04/M06 A3005 RMK AO2 SLP182 T10391056
Loading
Personal Weather Stations






























Interactive Weather Map New forecast layout! Learn more

10-Day Weather Forecast

Advertisements
Track Severe Weather on mobile